Lake Clark National Park, AK

5:58 PM AKDT on September 19, 2014 (GMT -0800)
RAWS SNIPE LAKE AK US | Change Station
CLOSE
Current Station
Personal Weather Station
Location: Port Alsworth, AK
Elevation: 2314 ft
Nearby Weather Stations

Elev 2314 ft 60.61 °N, 154.32 °W | Updated 54 minutes ago

Rain
Rain
43 °F
Feels Like 38 °F
N
8
Wind Variable Wind from NW
Gusts 11.0 mph

Today
High -- | Low -- °F
--% Chance of Precip.
Yesterday
High -- | Low -- °F
Precip. -- in
7:55 AM 8:26 PM
Waning Crescent, 15% visible
Pressure 29.37 in
Visibility 10.0 miles
Clouds Scattered Clouds 4000 ft
Mostly Cloudy 4600 ft
Windchill 38 °F
Dew Point 40 °F
Humidity 88%
Rainfall 0.03 in
Snow Depth 12 in , 0 in , 2 in
UV 1 out of 12
Pollen Not available.
Air Quality Not available.
Flu Activity Not available.
METAR PASV 200155Z AUTO VRB06KT 10SM SCT040 BKN046 10/04 A2935 RMK AO2 SLP944 T00950043

More Conditions Fewer Conditions

Pressure 29.37 in
Visibility 10.0 miles
Clouds Scattered Clouds 4000 ft
Mostly Cloudy 4600 ft
Windchill 38 °F
Dew Point 40 °F
Humidity 88%
Rainfall 0.03 in
Snow Depth 12 in , 0 in , 2 in
UV 1 out of 12
Pollen Not available.
Air Quality Not available.
Flu Activity Not available.
METAR PASV 200155Z AUTO VRB06KT 10SM SCT040 BKN046 10/04 A2935 RMK AO2 SLP944 T00950043

More Conditions Fewer Conditions

10-Day Weather Forecast

Almanac

Astronomy

Sep. 19, 2014 Rise Set
Actual Time 7:55 AM AKDT 8:26 PM AKDT
Civil Twilight 7:13 AM AKDT 9:08 PM AKDT
Nautical Twilight 6:21 AM AKDT 9:59 PM AKDT
Astronomical Twilight 5:24 AM AKDT 10:56 PM AKDT
Moon 2:58 AM AKDT (9/19) 6:45 PM AKDT (9/19)
Length of Visible Light 13h 55m
Length of Day
12h 30m
Tomorrow will be 5m 28s shorter.
Waning Crescent, 15% of the Moon is Illuminated
Today
Waning Crescent
Sep 24
New
Oct 1
First Quarter
Oct 8
Full
Oct 15
Last Quarter

Today's Extremes

State Highs State Lows

Community

WunderPhotos

Upload Photos

1,754,760 photos uploaded!

WunderBlogs® & News

Nearby

Snow Depth

Station Depth Elevation
Cooper Lake 12 in 1200 ft
Eagle Summit 0 in 3650 ft
Susitna Valley High 2 in 375 ft
Atigun Pass 2 in 4800 ft
Turnagain Pass 2 in 1880 ft

Earthquake Activity

City Distance Mag. Time & Date
No recent earthquake activity has been reported nearby.
Minimum magnitude displayed is 2.5.

Coastal Water Temperatures

Place Temperature
No Stations Reporting

Nearby Weather Stations